Time;durP1;ratioP1;P1;durP2;ratioP2;P2;SDS_P1;SDS_P2;PMS_P1;PMS_P2;Temp;Humidity;BMP_temperature;BMP_pressure;BME280_temperature;BME280_humidity;BME280_pressure;Samples;Min_cycle;Max_cycle;Signal;HPM_P1;HPM_P2
2021/09/26 00:05:07;;;;;;;2.73;2.40;;;18.10;82.40;;;;;;10489894;28;20197;-70
2021/09/26 00:10:29;;;;;;;2.87;2.57;;;18.20;82.50;;;;;;10488289;28;20595;-69
2021/09/26 00:15:51;;;;;;;3.13;2.83;;;18.10;82.40;;;;;;10494280;28;20687;-70
2021/09/26 00:21:16;;;;;;;2.70;2.30;;;18.20;82.40;;;;;;10469910;28;20713;-70
2021/09/26 00:26:39;;;;;;;2.87;2.67;;;18.20;82.40;;;;;;10491648;28;20196;-69
2021/09/26 00:32:01;;;;;;;3.23;2.93;;;18.10;82.40;;;;;;10471395;28;20228;-70
2021/09/26 00:37:24;;;;;;;2.87;2.57;;;18.20;82.40;;;;;;10479599;28;20192;-70
2021/09/26 00:42:47;;;;;;;2.60;2.40;;;18.20;82.70;;;;;;10480348;28;20200;-70
2021/09/26 00:48:09;;;;;;;2.87;2.67;;;18.10;82.40;;;;;;10471957;28;20193;-70
2021/09/26 00:53:33;;;;;;;2.70;2.50;;;18.20;82.50;;;;;;10471891;28;20216;-70
2021/09/26 00:58:55;;;;;;;2.70;2.50;;;18.20;82.50;;;;;;10480238;28;20293;-71
2021/09/26 01:04:18;;;;;;;2.73;2.53;;;18.10;82.40;;;;;;10471719;28;20197;-70
2021/09/26 01:09:47;;;;;;;2.70;2.50;;;18.10;82.40;;;;;;10477857;28;20213;-70
2021/09/26 01:15:16;;;;;;;3.37;2.60;;;18.10;82.50;;;;;;10460862;28;20220;-70
2021/09/26 01:20:48;;;;;;;2.80;2.60;;;18.10;82.50;;;;;;10477197;28;20350;-70
2021/09/26 01:26:25;;;;;;;3.30;2.60;;;18.20;82.50;;;;;;10486969;28;20194;-70
2021/09/26 01:31:52;;;;;;;3.10;2.80;;;18.10;82.40;;;;;;10470462;28;20223;-70
2021/09/26 01:37:21;;;;;;;3.03;2.73;;;18.10;82.50;;;;;;10484586;28;20204;-69
2021/09/26 01:42:49;;;;;;;3.20;2.90;;;18.10;82.50;;;;;;10477102;28;20616;-70
2021/09/26 01:48:17;;;;;;;3.10;2.90;;;18.10;82.50;;;;;;10487561;28;20196;-69
2021/09/26 01:53:43;;;;;;;2.47;2.27;;;18.20;82.60;;;;;;10488489;28;20603;-69
2021/09/26 01:59:08;;;;;;;3.10;2.80;;;18.10;82.50;;;;;;10494744;28;20209;-70
2021/09/26 02:04:33;;;;;;;3.10;2.80;;;18.10;82.40;;;;;;10499164;28;20195;-69
2021/09/26 02:09:56;;;;;;;2.70;2.50;;;18.10;82.50;;;;;;10490734;28;20244;-69
2021/09/26 02:15:22;;;;;;;3.23;2.70;;;18.10;82.50;;;;;;10488609;28;20220;-69
2021/09/26 02:20:46;;;;;;;3.33;2.87;;;18.10;82.40;;;;;;10486893;28;20228;-69
2021/09/26 02:26:09;;;;;;;3.10;2.90;;;18.10;82.40;;;;;;10459222;28;20196;-70
2021/09/26 02:31:31;;;;;;;2.70;2.50;;;18.10;82.40;;;;;;10493052;28;20228;-69
2021/09/26 02:36:55;;;;;;;2.90;2.63;;;18.10;82.40;;;;;;10485809;28;20217;-70
2021/09/26 02:42:25;;;;;;;3.30;3.00;;;18.10;82.40;;;;;;10489423;28;20738;-69
2021/09/26 02:47:51;;;;;;;3.03;2.70;;;18.10;82.40;;;;;;10469611;28;20204;-69
2021/09/26 02:53:16;;;;;;;3.03;2.77;;;18.10;82.40;;;;;;10457189;28;20221;-69
2021/09/26 02:58:38;;;;;;;3.40;3.10;;;18.10;82.40;;;;;;10473432;28;20622;-69
2021/09/26 03:04:02;;;;;;;3.23;2.90;;;18.10;82.40;;;;;;10476080;28;20824;-69
2021/09/26 03:09:25;;;;;;;3.17;2.87;;;18.10;82.40;;;;;;10460953;28;20212;-69
2021/09/26 03:14:48;;;;;;;3.23;2.90;;;18.10;82.40;;;;;;10460210;28;20228;-69
2021/09/26 03:20:11;;;;;;;2.90;2.67;;;18.20;82.40;;;;;;10492385;28;20679;-69
2021/09/26 03:25:35;;;;;;;3.10;2.80;;;18.10;82.40;;;;;;10494056;28;20192;-68
2021/09/26 03:30:57;;;;;;;3.73;2.93;;;18.10;82.40;;;;;;10514474;22;20224;-65
2021/09/26 03:36:19;;;;;;;3.17;2.87;;;18.10;82.40;;;;;;10498435;28;20232;-65
2021/09/26 03:41:43;;;;;;;3.30;3.00;;;18.10;82.30;;;;;;10492767;28;20225;-66
2021/09/26 03:47:05;;;;;;;3.20;2.90;;;18.10;82.30;;;;;;10492250;28;20812;-66
2021/09/26 03:52:28;;;;;;;3.27;2.97;;;18.10;82.30;;;;;;10491721;28;20712;-65
2021/09/26 03:57:51;;;;;;;2.93;2.70;;;18.10;82.20;;;;;;10492414;28;20185;-67
2021/09/26 04:03:13;;;;;;;3.07;2.70;;;18.10;82.30;;;;;;10490650;28;20224;-66
2021/09/26 04:08:36;;;;;;;3.40;3.10;;;18.10;82.30;;;;;;10493697;28;20192;-65
2021/09/26 04:14:00;;;;;;;3.57;3.20;;;18.10;82.20;;;;;;10490558;28;20724;-65
2021/09/26 04:19:22;;;;;;;2.93;2.73;;;18.10;82.30;;;;;;10491318;28;20222;-66
2021/09/26 04:24:44;;;;;;;3.57;2.93;;;18.10;82.20;;;;;;10491758;28;20185;-66
2021/09/26 04:30:09;;;;;;;3.37;3.07;;;18.10;82.20;;;;;;10491292;28;20216;-66
2021/09/26 04:35:31;;;;;;;3.00;2.73;;;18.10;82.20;;;;;;10491353;28;20201;-66
2021/09/26 04:40:53;;;;;;;3.20;2.90;;;18.10;82.20;;;;;;10489909;28;20216;-66
2021/09/26 04:46:17;;;;;;;3.30;3.00;;;18.10;82.10;;;;;;10487509;28;20211;-66
2021/09/26 04:51:39;;;;;;;4.30;3.07;;;18.10;82.20;;;;;;10513797;28;20207;-66
2021/09/26 04:57:01;;;;;;;3.20;3.00;;;18.10;82.10;;;;;;10507528;28;20581;-66
2021/09/26 05:02:24;;;;;;;3.47;3.00;;;18.10;82.10;;;;;;10541675;28;20227;-66
2021/09/26 05:07:46;;;;;;;3.23;2.97;;;18.10;82.20;;;;;;10521073;28;20192;-66
2021/09/26 05:13:09;;;;;;;3.70;3.17;;;18.10;82.10;;;;;;10499648;28;20212;-66
2021/09/26 05:18:33;;;;;;;3.57;2.97;;;18.10;82.10;;;;;;10495541;28;20652;-66
2021/09/26 05:23:55;;;;;;;3.00;2.70;;;18.10;82.10;;;;;;10539675;28;20223;-66
2021/09/26 05:29:18;;;;;;;3.00;2.80;;;18.10;82.00;;;;;;10505323;28;20196;-66
2021/09/26 05:34:41;;;;;;;3.17;2.87;;;18.10;82.00;;;;;;10499006;28;20240;-66
2021/09/26 05:40:05;;;;;;;3.20;2.90;;;18.10;82.00;;;;;;10503575;28;20314;-66
2021/09/26 05:45:27;;;;;;;3.20;2.90;;;18.10;82.60;;;;;;10523542;28;20299;-66
2021/09/26 05:50:51;;;;;;;3.23;2.93;;;18.10;82.00;;;;;;10509483;28;20222;-65
2021/09/26 05:56:15;;;;;;;3.40;2.93;;;18.10;81.90;;;;;;10501934;28;20224;-66
2021/09/26 06:01:37;;;;;;;3.53;2.80;;;18.10;81.90;;;;;;10495563;28;20223;-67
2021/09/26 06:07:00;;;;;;;2.83;2.53;;;18.10;81.90;;;;;;10495264;28;20192;-65
2021/09/26 06:12:22;;;;;;;4.10;3.10;;;18.10;81.80;;;;;;10495541;28;20555;-67
2021/09/26 06:17:45;;;;;;;2.90;2.70;;;18.10;81.80;;;;;;10455751;28;20220;-67
2021/09/26 06:23:08;;;;;;;3.10;2.90;;;18.10;81.80;;;;;;10455198;28;20217;-67
2021/09/26 06:28:30;;;;;;;2.93;2.53;;;18.10;81.80;;;;;;10471831;28;20574;-65
2021/09/26 06:33:52;;;;;;;3.00;2.70;;;18.10;81.80;;;;;;10502679;28;20224;-65
2021/09/26 06:39:16;;;;;;;3.13;2.83;;;18.10;81.80;;;;;;10495357;28;20196;-63
2021/09/26 06:44:38;;;;;;;3.00;2.70;;;18.10;81.70;;;;;;10494378;28;20184;-65
2021/09/26 06:50:00;;;;;;;3.57;2.97;;;18.10;81.70;;;;;;10491384;28;20212;-64
2021/09/26 06:55:24;;;;;;;2.47;2.27;;;18.10;81.70;;;;;;10453388;28;20283;-65
2021/09/26 07:00:46;;;;;;;2.60;2.40;;;18.10;81.70;;;;;;10452122;28;20718;-66
2021/09/26 07:06:09;;;;;;;3.10;2.80;;;18.10;81.80;;;;;;10500552;28;20195;-60
2021/09/26 07:11:32;;;;;;;3.00;2.73;;;18.10;81.70;;;;;;10498689;28;20701;-63
2021/09/26 07:16:54;;;;;;;2.60;2.40;;;18.10;81.70;;;;;;10491589;28;20696;-64
2021/09/26 07:22:19;;;;;;;2.77;2.57;;;18.10;81.70;;;;;;10486756;28;20212;-65
2021/09/26 07:27:43;;;;;;;3.13;2.77;;;18.10;81.70;;;;;;10456532;28;20193;-59
2021/09/26 07:33:05;;;;;;;2.97;2.70;;;18.10;81.80;;;;;;10483465;28;20224;-67
2021/09/26 07:38:27;;;;;;;2.97;2.77;;;18.10;81.80;;;;;;10507178;28;20203;-66
2021/09/26 07:43:51;;;;;;;2.77;2.57;;;18.10;81.80;;;;;;10500393;28;20219;-66
2021/09/26 07:49:13;;;;;;;3.47;2.70;;;18.10;81.90;;;;;;10466228;28;20681;-66
2021/09/26 07:54:35;;;;;;;3.10;2.80;;;18.10;81.90;;;;;;10482407;28;20216;-68
2021/09/26 07:59:59;;;;;;;3.20;2.90;;;18.10;81.90;;;;;;10522681;28;20432;-66
2021/09/26 08:05:21;;;;;;;3.45;3.15;;;18.20;82.10;;;;;;10517890;28;20425;-64
2021/09/26 08:10:43;;;;;;;2.83;2.50;;;18.40;81.10;;;;;;10491676;28;20227;-66
2021/09/26 08:16:07;;;;;;;2.47;2.27;;;18.30;81.30;;;;;;10495403;28;20231;-65
2021/09/26 08:21:29;;;;;;;3.50;2.63;;;18.20;81.60;;;;;;10491552;28;20216;-64
2021/09/26 08:26:51;;;;;;;3.23;2.70;;;18.20;81.80;;;;;;10490374;28;20215;-67
2021/09/26 08:32:14;;;;;;;2.60;2.40;;;18.10;81.80;;;;;;10489430;28;20223;-68
2021/09/26 08:37:38;;;;;;;3.13;2.50;;;18.20;82.00;;;;;;10522195;28;20628;-70
2021/09/26 08:43:01;;;;;;;3.17;2.40;;;18.20;82.00;;;;;;10528263;28;20554;-68
2021/09/26 08:48:25;;;;;;;3.03;2.73;;;18.10;82.00;;;;;;10512306;28;20821;-69
2021/09/26 08:53:47;;;;;;;3.30;2.70;;;18.10;82.10;;;;;;10490489;28;20227;-68
2021/09/26 08:59:09;;;;;;;2.67;2.47;;;18.10;82.00;;;;;;10492303;28;20202;-69
2021/09/26 09:04:37;;;;;;;2.90;2.70;;;18.10;82.00;;;;;;10515707;28;20204;-69
2021/09/26 09:10:01;;;;;;;2.77;2.57;;;18.20;82.20;;;;;;10487403;28;20221;-68
2021/09/26 09:15:24;;;;;;;3.30;3.00;;;18.20;82.30;;;;;;10489535;28;20224;-68
2021/09/26 09:20:47;;;;;;;3.40;3.10;;;18.20;82.70;;;;;;10493390;28;20720;-68
2021/09/26 09:26:10;;;;;;;3.23;2.90;;;18.20;83.10;;;;;;10491895;28;20196;-67
2021/09/26 09:31:33;;;;;;;3.90;3.50;;;18.20;83.30;;;;;;10489083;28;20236;-68
2021/09/26 09:37:15;;;;;;;3.43;3.13;;;18.20;83.40;;;;;;10519307;28;20212;-68
2021/09/26 09:42:39;;;;;;;4.23;3.57;;;18.20;83.20;;;;;;10535605;28;20211;-67
2021/09/26 09:48:14;;;;;;;3.97;3.60;;;18.20;83.30;;;;;;10516262;28;20192;-66
2021/09/26 09:53:41;;;;;;;5.40;4.13;;;18.20;83.30;;;;;;10497593;28;20282;-67
2021/09/26 09:59:03;;;;;;;4.10;3.60;;;18.30;83.50;;;;;;10521565;28;20203;-67
2021/09/26 10:04:36;;;;;;;4.43;3.53;;;18.20;83.50;;;;;;10485954;22;20223;-61
2021/09/26 10:10:00;;;;;;;4.50;3.73;;;18.20;83.70;;;;;;10478753;28;20625;-62
2021/09/26 10:15:22;;;;;;;5.10;3.70;;;18.30;83.80;;;;;;10460705;28;20217;-60
2021/09/26 10:20:44;;;;;;;4.03;3.50;;;18.30;84.00;;;;;;10453543;28;20216;-59
2021/09/26 10:26:09;;;;;;;3.80;3.23;;;18.30;84.00;;;;;;10455373;28;20193;-63
2021/09/26 10:31:31;;;;;;;3.70;3.40;;;18.30;84.00;;;;;;10450544;28;20875;-60
2021/09/26 10:36:54;;;;;;;4.23;2.97;;;18.30;83.80;;;;;;10448443;28;20586;-63
2021/09/26 10:42:20;;;;;;;3.20;2.90;;;18.30;83.60;;;;;;10446316;28;20224;-62
2021/09/26 10:47:54;;;;;;;3.47;3.17;;;18.30;83.40;;;;;;10433960;28;20196;-64
2021/09/26 10:53:16;;;;;;;3.30;3.10;;;18.20;83.10;;;;;;10413064;28;20308;-63
2021/09/26 10:58:55;;;;;;;3.67;3.37;;;18.20;83.10;;;;;;10404894;28;20828;-63
2021/09/26 11:04:39;;;;;;;3.67;3.20;;;18.30;83.00;;;;;;10407842;28;20213;-60
2021/09/26 11:10:03;;;;;;;3.13;2.83;;;18.30;82.90;;;;;;10421360;28;20218;-58
2021/09/26 11:15:26;;;;;;;4.33;3.03;;;18.30;83.10;;;;;;10444541;28;20685;-58
2021/09/26 11:20:49;;;;;;;4.07;3.40;;;18.20;83.20;;;;;;10446172;28;20761;-62
2021/09/26 11:30:26;;;;;;;5.10;3.80;;;18.80;81.30;;;;;;10607376;27;20796;-64
2021/09/26 11:35:49;;;;;;;4.93;4.00;;;18.60;82.70;;;;;;10608612;28;20652;-59
2021/09/26 11:41:11;;;;;;;4.07;3.67;;;18.50;82.60;;;;;;10609296;28;20203;-62
2021/09/26 11:46:36;;;;;;;5.87;3.67;;;18.40;82.70;;;;;;10569192;28;20583;-63
2021/09/26 11:51:58;;;;;;;3.93;3.53;;;18.40;82.90;;;;;;10603988;28;20214;-64
2021/09/26 11:57:22;;;;;;;4.50;4.10;;;18.40;83.10;;;;;;10605538;28;20248;-61
2021/09/26 12:02:45;;;;;;;4.50;4.07;;;18.30;83.10;;;;;;10610072;28;20293;-59
2021/09/26 12:08:08;;;;;;;4.30;3.90;;;18.30;83.20;;;;;;10598468;28;20206;-59
2021/09/26 12:13:30;;;;;;;4.17;3.77;;;18.30;83.20;;;;;;10607217;28;20229;-61
2021/09/26 12:18:56;;;;;;;4.90;4.17;;;18.30;83.30;;;;;;10604545;28;20201;-61
2021/09/26 12:24:19;;;;;;;5.97;4.63;;;18.30;83.30;;;;;;10600606;28;20206;-63
2021/09/26 12:29:51;;;;;;;4.97;4.57;;;18.30;83.30;;;;;;10609229;28;20222;-59
2021/09/26 12:35:26;;;;;;;4.50;4.10;;;18.30;83.20;;;;;;10576326;28;20572;-59
2021/09/26 12:40:53;;;;;;;4.20;3.80;;;18.30;83.20;;;;;;10542685;28;20215;-59
2021/09/26 12:46:17;;;;;;;4.73;4.33;;;18.30;83.20;;;;;;10552418;28;20560;-60
2021/09/26 12:51:44;;;;;;;6.67;4.33;;;18.30;83.20;;;;;;10580336;28;20215;-59
2021/09/26 12:57:15;;;;;;;4.30;3.93;;;18.30;83.30;;;;;;10580248;28;20191;-61
2021/09/26 13:02:41;;;;;;;4.30;3.90;;;18.30;83.40;;;;;;10578063;28;20726;-63
2021/09/26 13:08:08;;;;;;;4.23;3.73;;;18.30;83.50;;;;;;10580728;28;20218;-62
2021/09/26 13:13:35;;;;;;;4.80;4.17;;;18.30;83.60;;;;;;10578296;28;20226;-61
2021/09/26 13:18:58;;;;;;;6.30;4.50;;;18.30;84.40;;;;;;10579973;28;20190;-61
2021/09/26 13:24:26;;;;;;;5.97;4.47;;;18.30;84.00;;;;;;10578819;28;20221;-61
2021/09/26 13:29:50;;;;;;;5.23;4.73;;;18.40;84.50;;;;;;10551637;27;20222;-62
2021/09/26 13:35:18;;;;;;;5.23;4.60;;;18.40;84.50;;;;;;10554117;28;20184;-62
2021/09/26 13:40:43;;;;;;;5.80;4.67;;;18.40;84.70;;;;;;10615963;27;20217;-62
2021/09/26 13:46:08;;;;;;;6.70;5.00;;;18.40;84.90;;;;;;10620614;27;20567;-62
2021/09/26 13:51:33;;;;;;;5.57;4.87;;;18.40;85.00;;;;;;10618442;27;20225;-60
2021/09/26 13:56:55;;;;;;;5.60;4.60;;;18.40;85.00;;;;;;10661776;27;20201;-59
2021/09/26 14:02:20;;;;;;;5.23;4.73;;;18.40;85.00;;;;;;10655878;27;20217;-61
2021/09/26 14:07:43;;;;;;;5.30;4.73;;;18.40;84.90;;;;;;10658303;27;20213;-62
2021/09/26 14:13:05;;;;;;;5.70;4.67;;;18.40;84.90;;;;;;10659623;27;20301;-61
2021/09/26 14:18:30;;;;;;;6.23;5.00;;;18.40;85.10;;;;;;10666791;27;20663;-59
2021/09/26 14:23:54;;;;;;;5.17;4.67;;;18.50;85.50;;;;;;10660289;27;20214;-62
2021/09/26 14:29:16;;;;;;;6.07;5.07;;;18.50;85.50;;;;;;10657793;27;20236;-59
2021/09/26 14:34:40;;;;;;;6.33;5.10;;;18.50;85.80;;;;;;10661607;27;20201;-59
2021/09/26 14:40:02;;;;;;;7.43;4.97;;;18.50;85.70;;;;;;10659523;27;20701;-62
2021/09/26 14:45:27;;;;;;;7.30;4.97;;;18.50;85.80;;;;;;10660567;27;20543;-61
2021/09/26 14:50:52;;;;;;;5.63;4.40;;;18.50;85.90;;;;;;10659707;27;20206;-59
2021/09/26 14:56:16;;;;;;;5.00;4.57;;;18.50;85.80;;;;;;10660837;27;20227;-58
2021/09/26 15:01:39;;;;;;;5.70;4.70;;;18.50;85.60;;;;;;10654225;27;20751;-61
2021/09/26 15:07:03;;;;;;;6.80;4.23;;;18.50;85.40;;;;;;10660548;27;20288;-62
2021/09/26 15:12:25;;;;;;;4.60;4.20;;;18.50;85.30;;;;;;10658256;27;20564;-58
2021/09/26 15:17:47;;;;;;;4.27;3.87;;;18.40;85.20;;;;;;10659109;27;20190;-59
2021/09/26 15:23:12;;;;;;;4.50;4.10;;;18.50;85.10;;;;;;10658571;27;20217;-58
2021/09/26 15:28:34;;;;;;;4.10;3.80;;;18.50;85.10;;;;;;10652463;27;20219;-60
2021/09/26 15:33:57;;;;;;;5.23;4.73;;;18.50;85.00;;;;;;10650576;27;20678;-60
2021/09/26 15:39:20;;;;;;;5.13;4.63;;;18.50;85.60;;;;;;10657960;27;20185;-60
2021/09/26 15:44:43;;;;;;;6.50;4.47;;;18.50;85.90;;;;;;10657783;27;20295;-59
2021/09/26 15:50:09;;;;;;;5.13;4.63;;;18.50;86.00;;;;;;10657050;27;20589;-58
2021/09/26 15:55:32;;;;;;;4.57;4.17;;;18.50;86.20;;;;;;10659981;27;20204;-57
2021/09/26 16:00:56;;;;;;;5.03;4.53;;;18.50;86.60;;;;;;10653400;27;20222;-60
2021/09/26 16:06:20;;;;;;;5.47;4.90;;;18.50;86.80;;;;;;10658763;27;20210;-60
2021/09/26 16:11:43;;;;;;;5.37;4.80;;;18.50;86.90;;;;;;10658726;27;20682;-62
2021/09/26 16:17:05;;;;;;;5.37;4.53;;;18.50;87.00;;;;;;10653467;27;20843;-60
2021/09/26 16:22:27;;;;;;;4.83;4.33;;;18.40;86.60;;;;;;10657460;27;20228;-61
2021/09/26 16:27:51;;;;;;;4.70;4.20;;;18.40;86.80;;;;;;10658658;27;20702;-59
2021/09/26 16:33:14;;;;;;;4.67;4.17;;;18.40;86.00;;;;;;10621739;27;20657;-60
2021/09/26 16:38:37;;;;;;;4.47;4.07;;;18.50;85.90;;;;;;10658400;27;20566;-61
2021/09/26 16:44:01;;;;;;;4.63;4.10;;;18.40;85.70;;;;;;10659371;27;20214;-60
2021/09/26 16:49:24;;;;;;;4.40;4.00;;;18.40;85.50;;;;;;10660860;27;20559;-60
2021/09/26 16:54:46;;;;;;;4.07;3.67;;;18.40;85.40;;;;;;10661956;27;20204;-61
2021/09/26 17:00:13;;;;;;;4.83;4.43;;;18.40;85.30;;;;;;10602452;22;20708;-66
2021/09/26 17:05:35;;;;;;;4.57;4.10;;;18.40;85.20;;;;;;10538403;28;20707;-66
2021/09/26 17:10:58;;;;;;;4.17;3.80;;;18.40;85.10;;;;;;10524438;28;20230;-66
2021/09/26 17:16:25;;;;;;;4.13;3.73;;;18.50;85.00;;;;;;10539144;28;20569;-65
2021/09/26 17:21:47;;;;;;;4.07;3.70;;;18.50;85.00;;;;;;10533003;28;20231;-65
2021/09/26 17:27:10;;;;;;;4.53;4.10;;;18.50;84.90;;;;;;10538215;28;20415;-65
2021/09/26 17:32:34;;;;;;;4.27;3.87;;;18.50;84.90;;;;;;10520981;28;20606;-66
2021/09/26 17:37:57;;;;;;;4.33;3.93;;;18.40;84.80;;;;;;10521118;28;20274;-64
2021/09/26 17:43:21;;;;;;;5.03;4.00;;;18.50;84.80;;;;;;10530821;28;20750;-65
2021/09/26 17:48:45;;;;;;;4.30;3.87;;;18.40;84.60;;;;;;10523350;28;20215;-66
2021/09/26 17:54:10;;;;;;;4.47;4.07;;;18.50;84.60;;;;;;10562645;28;20222;-66
2021/09/26 17:59:32;;;;;;;4.27;3.87;;;18.40;84.50;;;;;;10562035;28;20219;-68
2021/09/26 18:04:56;;;;;;;5.00;4.23;;;18.40;84.50;;;;;;10534991;28;20195;-65
2021/09/26 18:10:23;;;;;;;4.33;3.93;;;18.50;85.10;;;;;;10518174;28;20224;-64
2021/09/26 18:15:47;;;;;;;5.97;4.17;;;18.50;84.50;;;;;;10513584;28;20585;-64
2021/09/26 18:21:12;;;;;;;4.67;3.90;;;18.50;84.40;;;;;;10515622;28;20226;-64
2021/09/26 18:26:35;;;;;;;5.27;4.20;;;18.50;84.50;;;;;;10512630;28;20188;-63
2021/09/26 18:31:57;;;;;;;4.67;4.27;;;18.50;84.40;;;;;;10492590;28;20216;-63
2021/09/26 18:37:20;;;;;;;4.53;4.13;;;18.50;84.50;;;;;;10516127;28;20200;-64
2021/09/26 18:42:43;;;;;;;4.90;4.40;;;18.50;84.50;;;;;;10493276;28;20565;-65
2021/09/26 18:48:07;;;;;;;5.17;4.67;;;18.50;84.50;;;;;;10521768;28;20222;-64
2021/09/26 18:53:31;;;;;;;4.37;3.97;;;18.50;84.60;;;;;;10509217;28;20212;-64
2021/09/26 18:58:55;;;;;;;4.97;4.43;;;18.50;84.60;;;;;;10493744;28;20200;-64
2021/09/26 19:04:18;;;;;;;4.53;4.13;;;18.50;84.70;;;;;;10508062;28;20206;-63
2021/09/26 19:09:41;;;;;;;5.13;4.07;;;18.50;84.70;;;;;;10498708;28;20220;-64
2021/09/26 19:15:04;;;;;;;4.97;4.57;;;18.50;84.70;;;;;;10533893;28;20227;-62
2021/09/26 19:20:26;;;;;;;4.60;4.20;;;18.50;84.70;;;;;;10544064;28;20219;-64
2021/09/26 19:25:50;;;;;;;4.70;4.30;;;18.50;84.70;;;;;;10510082;28;20197;-64
2021/09/26 19:31:15;;;;;;;5.00;4.60;;;18.50;84.70;;;;;;10513374;28;20307;-64
2021/09/26 19:36:38;;;;;;;4.43;4.03;;;18.50;84.80;;;;;;10492378;28;20189;-63
2021/09/26 19:42:01;;;;;;;5.17;4.43;;;18.50;84.70;;;;;;10491986;28;20578;-64
2021/09/26 19:47:24;;;;;;;4.77;4.37;;;18.50;84.70;;;;;;10494681;28;20212;-61
2021/09/26 19:52:46;;;;;;;4.30;3.90;;;18.50;84.70;;;;;;10513846;28;20287;-63
2021/09/26 19:58:10;;;;;;;4.73;4.23;;;18.50;84.70;;;;;;10582924;28;20202;-63
2021/09/26 20:03:32;;;;;;;4.53;4.00;;;18.50;84.70;;;;;;10551981;28;20223;-61
2021/09/26 20:08:54;;;;;;;3.87;3.57;;;18.50;84.70;;;;;;10541843;28;20219;-63
2021/09/26 20:14:18;;;;;;;4.80;4.10;;;18.50;84.60;;;;;;10541376;28;20206;-64
2021/09/26 20:19:40;;;;;;;4.93;4.43;;;18.50;84.60;;;;;;10538368;28;20211;-64
2021/09/26 20:25:02;;;;;;;4.73;4.33;;;18.50;84.70;;;;;;10504701;28;20212;-64
2021/09/26 20:30:27;;;;;;;5.17;4.27;;;18.50;84.70;;;;;;10501267;28;20219;-63
2021/09/26 20:35:49;;;;;;;6.80;4.33;;;18.50;84.90;;;;;;10533353;28;20697;-63
2021/09/26 20:41:12;;;;;;;4.70;4.30;;;18.50;85.10;;;;;;10512753;28;20228;-64
2021/09/26 20:46:35;;;;;;;4.93;4.43;;;18.50;85.20;;;;;;10504187;28;20199;-63
2021/09/26 20:51:58;;;;;;;5.20;4.40;;;18.50;85.10;;;;;;10502663;28;20603;-63
2021/09/26 20:57:20;;;;;;;6.43;4.60;;;18.50;85.10;;;;;;10538131;28;20195;-63
2021/09/26 21:02:44;;;;;;;6.07;4.63;;;18.50;85.10;;;;;;10529855;28;20227;-63
2021/09/26 21:08:07;;;;;;;5.07;4.47;;;18.50;85.30;;;;;;10495669;28;20685;-63
2021/09/26 21:13:29;;;;;;;4.63;4.23;;;18.50;85.40;;;;;;10513332;28;20219;-63
2021/09/26 21:18:53;;;;;;;5.00;4.60;;;18.50;85.40;;;;;;10536917;28;20200;-63
2021/09/26 21:24:15;;;;;;;5.27;4.77;;;18.50;86.10;;;;;;10538856;28;20191;-62
2021/09/26 21:29:37;;;;;;;5.13;4.60;;;18.50;85.70;;;;;;10537462;28;20227;-64
2021/09/26 21:35:01;;;;;;;5.70;4.87;;;18.50;85.80;;;;;;10536466;28;20194;-64
2021/09/26 21:40:26;;;;;;;5.70;4.90;;;18.50;85.90;;;;;;10532135;28;20212;-63
2021/09/26 21:45:48;;;;;;;5.23;4.73;;;18.50;86.00;;;;;;10529187;28;20196;-64
2021/09/26 21:51:11;;;;;;;5.13;4.60;;;18.50;86.10;;;;;;10529005;28;20222;-63
2021/09/26 21:56:34;;;;;;;5.63;5.03;;;18.50;86.20;;;;;;10522598;28;20200;-63
2021/09/26 22:01:56;;;;;;;5.50;5.00;;;18.50;86.20;;;;;;10536134;28;20220;-64
2021/09/26 22:07:19;;;;;;;6.30;4.93;;;18.50;86.30;;;;;;10499192;28;20200;-64
2021/09/26 22:12:42;;;;;;;5.77;5.00;;;18.50;86.30;;;;;;10492525;28;20228;-64
2021/09/26 22:18:06;;;;;;;5.40;4.90;;;18.50;86.20;;;;;;10492860;28;20836;-65
2021/09/26 22:23:33;;;;;;;6.03;4.80;;;18.50;86.20;;;;;;10493167;28;20220;-62
2021/09/26 22:28:57;;;;;;;5.33;4.83;;;18.50;86.20;;;;;;10501915;28;20196;-62
2021/09/26 22:34:19;;;;;;;5.87;4.90;;;18.50;86.30;;;;;;10495832;28;20203;-61
2021/09/26 22:39:43;;;;;;;5.33;4.90;;;18.50;86.40;;;;;;10533780;28;20707;-64
2021/09/26 22:45:08;;;;;;;7.27;5.30;;;18.50;86.40;;;;;;10517880;28;20711;-64
2021/09/26 22:50:30;;;;;;;6.10;5.50;;;18.50;86.40;;;;;;10533069;28;20349;-64
2021/09/26 22:55:54;;;;;;;5.77;4.83;;;18.50;86.40;;;;;;10533528;28;20206;-63
2021/09/26 23:01:21;;;;;;;5.40;4.90;;;18.50;86.40;;;;;;10515067;22;20234;-70
2021/09/26 23:06:43;;;;;;;6.57;5.20;;;18.50;86.40;;;;;;10491459;28;20192;-70
2021/09/26 23:12:07;;;;;;;5.60;5.00;;;18.50;86.30;;;;;;10486024;28;20650;-69
2021/09/26 23:17:29;;;;;;;5.97;5.37;;;18.50;86.30;;;;;;10493062;28;20188;-70
2021/09/26 23:22:52;;;;;;;5.77;5.03;;;18.50;86.30;;;;;;10492550;28;20603;-69
2021/09/26 23:28:16;;;;;;;5.53;5.03;;;18.50;86.30;;;;;;10492908;28;20219;-70
2021/09/26 23:33:38;;;;;;;5.53;5.03;;;18.50;86.30;;;;;;10484060;28;20199;-69
2021/09/26 23:39:00;;;;;;;5.37;4.87;;;18.50;86.30;;;;;;10474316;28;20570;-69
2021/09/26 23:44:24;;;;;;;6.33;5.13;;;18.50;86.30;;;;;;10493338;28;20193;-69
2021/09/26 23:49:46;;;;;;;6.23;5.30;;;18.50;86.30;;;;;;10467264;28;20219;-67
2021/09/26 23:55:10;;;;;;;5.00;4.50;;;18.50;86.30;;;;;;10462896;28;20212;-70
